createdAt,value
2019-01-26T00:02:23.099Z,13.70
2019-01-26T00:06:21.805Z,14.50
2019-01-26T00:10:20.369Z,16.67
2019-01-26T00:14:18.756Z,15.77
2019-01-26T00:18:20.899Z,18.00
2019-01-26T00:22:19.063Z,15.80
2019-01-26T00:26:19.381Z,18.70
2019-01-26T00:30:17.763Z,15.33
2019-01-26T00:34:16.190Z,19.77
2019-01-26T00:38:14.596Z,15.77
2019-01-26T00:42:22.426Z,15.83
2019-01-26T00:46:28.270Z,17.40
2019-01-26T00:50:22.129Z,16.27
2019-01-26T00:54:20.550Z,15.03
2019-01-26T00:58:23.771Z,17.10
2019-01-26T01:02:22.502Z,14.70
2019-01-26T01:06:20.999Z,18.17
2019-01-26T01:10:39.027Z,15.23
2019-01-26T01:15:07.563Z,14.43
2019-01-26T01:18:37.482Z,17.43
2019-01-26T01:22:35.896Z,12.40
2019-01-26T01:26:34.389Z,17.90
2019-01-26T01:30:32.807Z,17.57
2019-01-26T01:34:31.221Z,16.50
2019-01-26T01:38:29.759Z,17.20
2019-01-26T01:42:28.139Z,14.90
2019-01-26T01:46:26.696Z,21.03
2019-01-26T01:50:28.032Z,22.33
2019-01-26T01:54:29.396Z,23.43
2019-01-26T01:58:30.293Z,19.60
2019-01-26T02:02:30.351Z,19.37
2019-01-26T02:06:28.743Z,17.07
2019-01-26T02:10:27.193Z,18.00
2019-01-26T02:14:25.570Z,17.73
2019-01-26T02:18:23.954Z,19.27
2019-01-26T02:22:24.795Z,21.67
2019-01-26T02:26:23.191Z,24.17
2019-01-26T02:30:22.884Z,18.53
2019-01-26T02:34:21.295Z,24.60
2019-01-26T02:38:19.686Z,21.90
2019-01-26T02:42:18.124Z,21.57
2019-01-26T02:46:16.599Z,20.70
2019-01-26T02:50:17.211Z,20.67
2019-01-26T02:54:15.684Z,26.70
2019-01-26T02:58:14.090Z,24.30
2019-01-26T03:02:12.513Z,23.37
2019-01-26T03:06:12.169Z,26.97
2019-01-26T03:10:13.831Z,25.87
2019-01-26T03:14:12.258Z,24.10
2019-01-26T03:18:10.787Z,22.13
2019-01-26T03:22:09.174Z,29.30
2019-01-26T03:26:07.924Z,27.33
2019-01-26T03:30:09.521Z,24.40
2019-01-26T03:34:07.952Z,27.27
2019-01-26T03:38:06.664Z,26.37
2019-01-26T03:42:05.039Z,25.00
2019-01-26T03:46:03.851Z,27.07
2019-01-26T03:50:02.235Z,23.40
2019-01-26T03:54:01.022Z,22.20
2019-01-26T03:57:59.430Z,29.40
2019-01-26T04:01:57.897Z,24.20
2019-01-26T04:05:56.394Z,20.73
2019-01-26T04:10:00.282Z,27.23
2019-01-26T04:13:58.779Z,24.67
2019-01-26T04:17:57.351Z,28.77
2019-01-26T04:21:55.780Z,29.27
2019-01-26T04:25:54.265Z,28.03
2019-01-26T04:29:52.697Z,26.73
2019-01-26T04:33:54.515Z,26.90
2019-01-26T04:37:52.943Z,24.03
2019-01-26T04:41:51.409Z,23.17
2019-01-26T04:45:49.823Z,26.60
2019-01-26T04:49:48.260Z,22.13
2019-01-26T04:53:46.629Z,26.30
2019-01-26T04:57:45.303Z,22.97
2019-01-26T05:05:47.055Z,27.80
2019-01-26T05:09:45.489Z,23.10
2019-01-26T05:13:43.872Z,27.87
2019-01-26T05:17:42.470Z,25.57
2019-01-26T05:21:40.902Z,27.97
2019-01-26T05:25:41.651Z,28.87
2019-01-26T05:29:40.103Z,29.20
2019-01-26T05:33:38.545Z,27.87
2019-01-26T05:37:36.946Z,27.43
2019-01-26T05:41:35.747Z,24.93
2019-01-26T05:45:34.190Z,28.37
2019-01-26T05:49:32.616Z,27.87
2019-01-26T05:53:31.119Z,27.13
2019-01-26T05:57:29.585Z,28.20
2019-01-26T06:01:27.969Z,27.07
2019-01-26T06:05:26.876Z,26.80
2019-01-26T06:09:26.938Z,29.13
2019-01-26T06:13:25.304Z,27.20
2019-01-26T06:17:23.816Z,28.63
2019-01-26T06:21:22.724Z,26.37
2019-01-26T06:25:21.507Z,27.53
2019-01-26T06:29:20.231Z,28.27
2019-01-26T06:33:18.623Z,31.83
2019-01-26T06:37:17.379Z,29.60
2019-01-26T06:41:15.914Z,29.30
2019-01-26T06:45:16.947Z,27.77
2019-01-26T06:49:15.370Z,29.40
2019-01-26T06:53:13.859Z,26.10
2019-01-26T06:57:12.338Z,29.90
2019-01-26T07:01:11.514Z,29.17
2019-01-26T07:05:14.954Z,26.83
2019-01-26T07:09:13.348Z,26.20
2019-01-26T07:13:11.866Z,25.40
2019-01-26T07:17:10.248Z,26.37
2019-01-26T07:21:12.193Z,22.83
2019-01-26T07:25:20.761Z,21.20
2019-01-26T07:29:19.134Z,24.63
2019-01-26T07:33:17.574Z,26.97
2019-01-26T07:37:15.940Z,26.27
2019-01-26T07:41:14.344Z,27.00
2019-01-26T07:45:13.657Z,26.17
2019-01-26T07:49:12.051Z,26.93
2019-01-26T07:53:10.523Z,21.40
2019-01-26T07:57:09.095Z,19.83
2019-01-26T08:01:08.060Z,24.13
2019-01-26T08:05:08.053Z,25.73
2019-01-26T08:09:07.967Z,22.67
2019-01-26T08:13:06.439Z,19.43
2019-01-26T08:17:04.976Z,23.63
2019-01-26T08:21:03.447Z,23.57
2019-01-26T08:25:02.275Z,23.10
2019-01-26T08:29:05.091Z,21.30
2019-01-26T08:33:04.150Z,18.93
2019-01-26T08:37:02.567Z,16.50
2019-01-26T08:41:00.955Z,18.30
2019-01-26T08:44:59.345Z,22.00
2019-01-26T08:48:58.185Z,20.00
2019-01-26T08:53:00.024Z,19.90
2019-01-26T08:56:58.460Z,19.93
2019-01-26T09:00:57.053Z,20.93
2019-01-26T09:04:58.785Z,22.03
2019-01-26T09:08:56.856Z,21.50
2019-01-26T09:12:55.257Z,21.97
2019-01-26T09:16:53.695Z,22.87
2019-01-26T09:20:53.750Z,21.03
2019-01-26T09:24:52.115Z,18.17
2019-01-26T09:28:50.567Z,18.33
2019-01-26T09:32:49.081Z,18.67
2019-01-26T09:36:47.455Z,17.67
2019-01-26T09:40:45.886Z,15.77
2019-01-26T09:44:44.290Z,17.97
2019-01-26T09:48:46.353Z,16.97
2019-01-26T09:52:42.819Z,15.37
2019-01-26T09:56:41.353Z,16.97
2019-01-26T10:00:39.894Z,14.07
2019-01-26T10:04:40.751Z,13.13
2019-01-26T10:08:39.525Z,15.33
2019-01-26T10:12:37.989Z,13.57
2019-01-26T10:16:36.406Z,13.20
2019-01-26T10:20:37.811Z,15.40
2019-01-26T10:24:36.233Z,14.63
2019-01-26T10:28:34.673Z,13.97
2019-01-26T10:32:35.960Z,14.07
2019-01-26T10:36:36.020Z,15.30
2019-01-26T10:40:38.491Z,11.93
2019-01-26T10:44:38.275Z,14.70
2019-01-26T10:48:36.643Z,14.13
2019-01-26T10:52:35.067Z,10.93
2019-01-26T10:56:33.506Z,14.97
2019-01-26T11:00:31.995Z,14.37
2019-01-26T11:04:30.408Z,12.70
2019-01-26T11:08:33.191Z,14.30
2019-01-26T11:12:31.630Z,8.47
2019-01-26T11:16:30.033Z,13.60
2019-01-26T11:20:28.546Z,13.57
2019-01-26T11:24:26.956Z,14.63
2019-01-26T11:28:25.385Z,14.63
2019-01-26T11:32:23.832Z,14.97
2019-01-26T11:36:22.657Z,13.93
2019-01-26T11:40:22.637Z,12.47
2019-01-26T11:44:21.066Z,14.17
2019-01-26T11:48:21.127Z,12.17
2019-01-26T11:52:19.604Z,13.70
2019-01-26T11:56:22.649Z,11.90
2019-01-26T12:00:24.477Z,14.50
2019-01-26T12:04:30.099Z,12.63
2019-01-26T12:08:28.684Z,11.83
2019-01-26T12:12:27.030Z,13.17
2019-01-26T12:16:27.441Z,14.40
2019-01-26T12:20:25.870Z,11.53
2019-01-26T12:24:24.291Z,10.03
2019-01-26T12:28:25.832Z,11.33
2019-01-26T12:32:24.247Z,13.30
2019-01-26T12:36:22.664Z,13.80
2019-01-26T12:40:21.392Z,13.00
2019-01-26T12:44:20.502Z,12.53
2019-01-26T12:48:18.930Z,11.10
2019-01-26T12:52:17.366Z,12.07
2019-01-26T12:56:22.614Z,10.93
2019-01-26T13:00:25.620Z,12.63
2019-01-26T13:04:24.029Z,12.70
2019-01-26T13:08:24.086Z,11.13
2019-01-26T13:12:22.546Z,11.33
2019-01-26T13:16:20.991Z,11.93
2019-01-26T13:20:19.792Z,10.70
2019-01-26T13:24:19.720Z,10.70
2019-01-26T13:28:18.862Z,10.33
2019-01-26T13:32:17.369Z,9.90
2019-01-26T13:36:15.892Z,8.77
2019-01-26T13:40:17.429Z,9.23
2019-01-26T13:44:15.860Z,8.53
2019-01-26T13:48:14.253Z,8.20
2019-01-26T13:52:12.685Z,8.60
2019-01-26T13:56:11.337Z,8.23
2019-01-26T14:00:17.194Z,9.30
2019-01-26T14:04:15.608Z,9.17
2019-01-26T14:08:14.453Z,7.13
2019-01-26T14:12:12.871Z,8.83
2019-01-26T14:16:17.097Z,9.10
2019-01-26T14:20:18.404Z,7.67
2019-01-26T14:24:17.074Z,9.17
2019-01-26T14:28:15.493Z,8.93
2019-01-26T14:32:14.306Z,8.80
2019-01-26T14:36:13.001Z,9.37
2019-01-26T14:40:14.331Z,10.03
2019-01-26T14:44:12.991Z,8.47
2019-01-26T14:48:11.766Z,7.80
2019-01-26T14:52:10.200Z,8.90
2019-01-26T14:56:08.598Z,8.10
2019-01-26T15:00:10.305Z,8.03
2019-01-26T15:04:08.745Z,6.47
2019-01-26T15:08:07.106Z,7.33
2019-01-26T15:12:05.508Z,6.80
2019-01-26T15:16:04.231Z,6.40
2019-01-26T15:20:06.076Z,7.87
2019-01-26T15:24:03.315Z,8.67
2019-01-26T15:28:01.703Z,8.47
2019-01-26T15:32:00.199Z,7.93
2019-01-26T15:35:58.634Z,8.43
2019-01-26T15:39:57.103Z,9.60
2019-01-26T15:43:55.543Z,9.50
2019-01-26T15:47:53.939Z,10.20
2019-01-26T15:51:52.305Z,10.03
2019-01-26T15:55:50.931Z,11.30
2019-01-26T15:59:53.399Z,11.30
2019-01-26T16:03:52.282Z,10.47
2019-01-26T16:07:50.707Z,10.47
2019-01-26T16:11:49.097Z,10.03
2019-01-26T16:15:47.549Z,9.33
2019-01-26T16:19:45.926Z,9.63
2019-01-26T16:23:44.327Z,7.77
2019-01-26T16:27:42.761Z,8.13
2019-01-26T16:31:41.150Z,7.80
2019-01-26T16:35:39.577Z,7.80
2019-01-26T16:39:45.295Z,8.33
2019-01-26T16:43:46.016Z,10.03
2019-01-26T16:47:44.783Z,9.33
2019-01-26T16:51:43.260Z,8.50
2019-01-26T16:55:41.636Z,8.77
2019-01-26T16:59:40.468Z,9.33
2019-01-26T17:03:41.623Z,6.57
2019-01-26T17:07:40.064Z,10.83
2019-01-26T17:11:39.017Z,9.50
2019-01-26T17:15:37.434Z,9.37
2019-01-26T17:19:35.864Z,8.70
2019-01-26T17:23:35.832Z,9.00
2019-01-26T17:27:34.399Z,8.53
2019-01-26T17:31:32.847Z,9.57
2019-01-26T17:35:37.733Z,9.17
2019-01-26T17:39:36.172Z,8.53
2019-01-26T17:43:34.645Z,8.53
2019-01-26T17:47:33.098Z,8.90
2019-01-26T17:51:31.558Z,8.73
2019-01-26T17:55:30.043Z,6.20
2019-01-26T17:59:29.369Z,7.03
2019-01-26T18:03:27.884Z,7.43
2019-01-26T18:07:26.287Z,6.63
2019-01-26T18:11:24.728Z,7.00
2019-01-26T18:15:23.137Z,8.27
2019-01-26T18:19:21.845Z,7.10
2019-01-26T18:23:21.939Z,7.00
2019-01-26T18:27:20.375Z,6.50
2019-01-26T18:31:18.776Z,6.40
2019-01-26T18:35:17.219Z,7.30
2019-01-26T18:39:15.945Z,7.73
2019-01-26T18:43:14.579Z,7.07
2019-01-26T18:47:17.888Z,7.47
2019-01-26T18:51:16.341Z,6.33
2019-01-26T18:55:14.730Z,7.17
2019-01-26T18:59:13.159Z,6.67
2019-01-26T19:03:26.338Z,5.90
2019-01-26T19:07:24.767Z,6.90
2019-01-26T19:11:23.167Z,7.80
2019-01-26T19:15:26.199Z,7.70
2019-01-26T19:19:26.227Z,6.60
2019-01-26T19:23:24.903Z,5.87
2019-01-26T19:27:23.299Z,6.60
2019-01-26T19:31:21.732Z,6.20
2019-01-26T19:35:20.146Z,7.73
2019-01-26T19:39:18.543Z,7.20
2019-01-26T19:43:17.445Z,5.93
2019-01-26T19:47:15.887Z,5.60
2019-01-26T19:51:14.279Z,6.17
2019-01-26T19:55:12.975Z,5.77
2019-01-26T19:59:11.684Z,5.50
2019-01-26T20:03:12.608Z,6.23
2019-01-26T20:07:11.129Z,5.40
2019-01-26T20:11:09.557Z,7.43
2019-01-26T20:15:12.710Z,5.50
2019-01-26T20:19:11.118Z,5.37
2019-01-26T20:23:09.630Z,5.07
2019-01-26T20:27:08.176Z,5.23
2019-01-26T20:31:06.586Z,5.17
2019-01-26T20:35:06.732Z,4.30
2019-01-26T20:39:10.892Z,4.60
2019-01-26T20:43:09.332Z,4.67
2019-01-26T20:47:08.077Z,4.17
2019-01-26T20:51:06.473Z,4.80
2019-01-26T20:55:07.185Z,3.90
2019-01-26T20:59:06.329Z,4.50
2019-01-26T21:03:04.724Z,4.23
2019-01-26T21:07:03.133Z,3.90
2019-01-26T21:11:02.044Z,3.77
2019-01-26T21:15:04.832Z,3.60
2019-01-26T21:19:03.573Z,3.30
2019-01-26T21:23:01.974Z,3.63
2019-01-26T21:27:00.359Z,3.57
2019-01-26T21:31:02.160Z,3.80
2019-01-26T21:35:00.561Z,3.30
2019-01-26T21:38:59.342Z,3.57
2019-01-26T21:42:58.697Z,3.50
2019-01-26T21:46:57.151Z,3.30
2019-01-26T21:50:57.916Z,3.80
2019-01-26T21:54:56.315Z,3.17
2019-01-26T21:58:55.088Z,3.07
2019-01-26T22:02:53.447Z,2.77
2019-01-26T22:06:51.852Z,2.30
2019-01-26T22:10:50.666Z,2.50
2019-01-26T22:14:49.059Z,2.80
2019-01-26T22:18:47.445Z,2.30
2019-01-26T22:22:46.789Z,2.40
2019-01-26T22:26:45.222Z,2.20
2019-01-26T22:30:45.302Z,2.20
2019-01-26T22:34:44.149Z,1.93
2019-01-26T22:38:42.884Z,2.10
2019-01-26T22:42:41.291Z,2.47
2019-01-26T22:46:42.768Z,2.30
2019-01-26T22:50:41.189Z,2.17
2019-01-26T22:54:39.682Z,1.87
2019-01-26T22:58:38.085Z,1.70
2019-01-26T23:02:36.493Z,2.10
2019-01-26T23:06:44.120Z,1.87
2019-01-26T23:10:51.792Z,1.80
2019-01-26T23:14:59.090Z,1.60
2019-01-26T23:19:26.524Z,1.77
2019-01-26T23:23:33.720Z,1.50
2019-01-26T23:27:44.645Z,1.60
2019-01-26T23:31:43.034Z,1.70
2019-01-26T23:35:41.442Z,1.47
2019-01-26T23:39:39.847Z,1.70
2019-01-26T23:43:38.226Z,1.63
2019-01-26T23:47:36.637Z,1.80
2019-01-26T23:51:35.043Z,1.70
2019-01-26T23:55:33.517Z,1.53
2019-01-26T23:59:31.997Z,1.77
